Time,TemperatureF,DewpointF,PressureIn,WindDirection,WindDirectionDegrees,WindSpeedMPH,WindSpeedGustMPH,Humidity,HourlyPrecipIn,Conditions,Clouds,dailyrainin,SolarRadiationWatts/m^2,SoftwareType,DateUTC
2013-12-24 00:03:00,42.0,31.0,-100.00,NNE,21,3.0,4.0,65,0.00,,,1.34,0.000000,,2013-12-24 05:03:00,
2013-12-24 00:43:00,40.0,29.0,-100.00,NNE,24,3.0,5.0,64,0.00,,,1.14,0.000000,,2013-12-24 05:43:00,
2013-12-24 00:53:00,40.0,29.0,-100.00,NNE,24,3.0,5.0,64,0.00,,,1.14,0.000000,,2013-12-24 05:53:00,
2013-12-24 01:03:00,40.0,29.0,-100.00,NNE,24,3.0,5.0,64,0.00,,,1.14,0.000000,,2013-12-24 06:03:00,
2013-12-24 01:42:00,40.0,30.0,-100.00,NNE,26,1.0,4.0,67,0.00,,,0.80,0.000000,,2013-12-24 06:42:00,
2013-12-24 01:52:00,40.0,30.0,-100.00,NNE,26,1.0,4.0,67,0.00,,,0.80,0.000000,,2013-12-24 06:52:00,
2013-12-24 02:02:00,40.0,30.0,-100.00,NNE,26,1.0,4.0,67,0.00,,,0.80,0.000000,,2013-12-24 07:02:00,
2013-12-24 02:42:00,39.0,32.0,-100.00,South,175,1.0,3.0,75,0.00,,,0.75,0.000000,,2013-12-24 07:42:00,
2013-12-24 02:52:00,39.0,32.0,-100.00,South,175,1.0,3.0,75,0.00,,,0.75,0.000000,,2013-12-24 07:52:00,
2013-12-24 03:02:00,39.0,32.0,-100.00,South,175,1.0,3.0,75,0.00,,,0.75,0.000000,,2013-12-24 08:02:00,
2013-12-24 03:42:00,38.0,27.0,-100.00,North,9,2.0,6.0,65,0.00,,,0.67,0.000000,,2013-12-24 08:42:00,
2013-12-24 03:52:00,38.0,27.0,-100.00,North,9,2.0,6.0,65,0.00,,,0.67,0.000000,,2013-12-24 08:52:00,
2013-12-24 04:02:00,38.0,27.0,-100.00,North,9,2.0,6.0,65,0.00,,,0.67,0.000000,,2013-12-24 09:02:00,
2013-12-24 04:43:00,35.0,27.0,-100.00,NW,323,3.0,5.0,72,0.00,,,0.52,0.000000,,2013-12-24 09:43:00,
2013-12-24 04:53:00,35.0,27.0,-100.00,NW,323,3.0,5.0,72,0.00,,,0.52,0.000000,,2013-12-24 09:53:00,
2013-12-24 05:03:00,35.0,27.0,-100.00,NW,323,3.0,5.0,72,0.00,,,0.52,0.000000,,2013-12-24 10:03:00,
2013-12-24 05:43:00,33.0,26.0,-100.00,North,358,1.0,4.0,74,0.00,,,0.38,0.000000,,2013-12-24 10:43:00,
2013-12-24 05:53:00,33.0,26.0,-100.00,North,358,1.0,4.0,74,0.00,,,0.38,0.000000,,2013-12-24 10:53:00,
2013-12-24 06:02:00,33.0,26.0,-100.00,North,358,1.0,4.0,74,0.00,,,0.38,0.000000,,2013-12-24 11:02:00,
2013-12-24 06:42:00,33.0,25.0,-100.00,North,351,4.0,8.0,73,0.00,,,0.22,0.000000,,2013-12-24 11:42:00,
2013-12-24 06:53:00,33.0,25.0,-100.00,North,351,4.0,8.0,73,0.00,,,0.22,0.000000,,2013-12-24 11:53:00,
2013-12-24 07:02:00,33.0,25.0,-100.00,North,351,4.0,8.0,73,0.00,,,0.22,0.000000,,2013-12-24 12:02:00,
2013-12-24 07:42:00,29.0,26.0,-100.00,North,-999,0.0,4.0,89,0.00,,,0.12,0.000000,,2013-12-24 12:42:00,
2013-12-24 07:52:00,29.0,26.0,-100.00,North,-999,0.0,4.0,89,0.00,,,0.12,0.000000,,2013-12-24 12:52:00,
2013-12-24 08:02:00,29.0,26.0,-100.00,North,-999,0.0,4.0,89,0.00,,,0.12,0.000000,,2013-12-24 13:02:00,
2013-12-24 08:42:00,29.0,26.0,-100.00,North,-999,0.0,3.0,88,0.00,,,0.08,7.000000,,2013-12-24 13:42:00,
2013-12-24 08:52:00,29.0,26.0,-100.00,North,-999,0.0,3.0,88,0.00,,,0.08,7.000000,,2013-12-24 13:52:00,
2013-12-24 09:02:00,29.0,26.0,-100.00,North,-999,0.0,3.0,88,0.00,,,0.08,7.000000,,2013-12-24 14:02:00,
2013-12-24 10:54:00,42.0,26.0,-100.00,NNW,339,4.0,12.0,53,0.00,,,0.03,318.000000,,2013-12-24 15:54:00,
2013-12-24 11:03:00,42.0,26.0,-100.00,NNW,339,4.0,12.0,53,0.00,,,0.03,318.000000,,2013-12-24 16:03:00,
2013-12-24 11:43:00,43.0,26.0,-100.00,NW,325,7.0,14.0,50,0.00,,,0.01,459.000000,,2013-12-24 16:43:00,
2013-12-24 11:53:00,43.0,26.0,-100.00,NW,325,7.0,14.0,50,0.00,,,0.01,459.000000,,2013-12-24 16:53:00,
2013-12-24 12:02:00,43.0,26.0,-100.00,NW,325,7.0,14.0,50,0.00,,,0.01,459.000000,,2013-12-24 17:02:00,
2013-12-24 12:42:00,44.0,25.0,-100.00,NNW,327,8.0,15.0,46,0.00,,,0.00,564.000000,,2013-12-24 17:42:00,
2013-12-24 12:52:00,44.0,25.0,-100.00,NNW,327,8.0,15.0,46,0.00,,,0.00,564.000000,,2013-12-24 17:52:00,
2013-12-24 13:02:00,44.0,25.0,-100.00,NNW,327,8.0,15.0,46,0.00,,,0.00,564.000000,,2013-12-24 18:02:00,
2013-12-24 13:42:00,44.0,20.0,-100.00,NW,317,8.0,17.0,38,0.00,,,0.00,567.000000,,2013-12-24 18:42:00,
2013-12-24 13:52:00,44.0,20.0,-100.00,NW,317,8.0,17.0,38,0.00,,,0.00,567.000000,,2013-12-24 18:52:00,
2013-12-24 14:01:00,44.0,20.0,-100.00,NW,317,8.0,17.0,38,0.00,,,0.00,567.000000,,2013-12-24 19:01:00,
2013-12-24 14:42:00,44.0,19.0,-100.00,NW,316,7.0,19.0,37,0.00,,,0.00,563.000000,,2013-12-24 19:42:00,
2013-12-24 14:52:00,44.0,19.0,-100.00,NW,316,7.0,19.0,37,0.00,,,0.00,563.000000,,2013-12-24 19:52:00,
2013-12-24 15:01:00,44.0,19.0,-100.00,NW,316,7.0,19.0,37,0.00,,,0.00,563.000000,,2013-12-24 20:01:00,
2013-12-24 15:42:00,42.0,18.0,-100.00,NW,306,7.0,18.0,37,0.00,,,0.00,440.000000,,2013-12-24 20:42:00,
2013-12-24 15:52:00,42.0,18.0,-100.00,NW,306,7.0,18.0,37,0.00,,,0.00,440.000000,,2013-12-24 20:52:00,
2013-12-24 16:02:00,42.0,18.0,-100.00,NW,306,7.0,18.0,37,0.00,,,0.00,440.000000,,2013-12-24 21:02:00,
2013-12-24 16:43:00,41.0,17.0,-100.00,WNW,301,6.0,14.0,38,0.00,,,0.00,292.000000,,2013-12-24 21:43:00,
2013-12-24 16:53:00,41.0,17.0,-100.00,WNW,301,6.0,14.0,38,0.00,,,0.00,292.000000,,2013-12-24 21:53:00,
2013-12-24 17:03:00,41.0,17.0,-100.00,WNW,301,6.0,14.0,38,0.00,,,0.00,292.000000,,2013-12-24 22:03:00,
2013-12-24 17:43:00,36.0,15.0,-100.00,NNW,333,6.0,11.0,42,0.00,,,0.00,106.000000,,2013-12-24 22:43:00,
2013-12-24 17:53:00,36.0,15.0,-100.00,NNW,333,6.0,11.0,42,0.00,,,0.00,106.000000,,2013-12-24 22:53:00,
2013-12-24 18:02:00,36.0,15.0,-100.00,NNW,333,6.0,11.0,42,0.00,,,0.00,106.000000,,2013-12-24 23:02:00,
2013-12-24 18:42:00,33.0,15.0,-100.00,NE,42,2.0,7.0,48,0.00,,,0.00,3.000000,,2013-12-24 23:42:00,
2013-12-24 18:53:00,33.0,15.0,-100.00,NE,42,2.0,7.0,48,0.00,,,0.00,3.000000,,2013-12-24 23:53:00,
2013-12-24 19:02:00,33.0,15.0,-100.00,NE,42,2.0,7.0,48,0.00,,,0.00,3.000000,,2013-12-25 00:02:00,
2013-12-24 19:22:00,32.0,14.0,-100.00,North,5,3.0,6.0,47,0.00,,,0.00,0.000000,,2013-12-25 00:22:00,
2013-12-24 19:32:00,32.0,14.0,-100.00,North,5,3.0,6.0,47,0.00,,,0.00,0.000000,,2013-12-25 00:32:00,
2013-12-24 19:42:00,32.0,14.0,-100.00,North,5,3.0,6.0,47,0.00,,,0.00,0.000000,,2013-12-25 00:42:00,
2013-12-24 19:52:00,32.0,14.0,-100.00,North,5,3.0,6.0,47,0.00,,,0.00,0.000000,,2013-12-25 00:52:00,
2013-12-24 20:02:00,32.0,14.0,-100.00,North,5,3.0,6.0,47,0.00,,,0.00,0.000000,,2013-12-25 01:02:00,
2013-12-24 20:42:00,30.0,13.0,-100.00,NE,37,1.0,5.0,48,0.00,,,0.00,0.000000,,2013-12-25 01:42:00,
2013-12-24 20:52:00,30.0,13.0,-100.00,NE,37,1.0,5.0,48,0.00,,,0.00,0.000000,,2013-12-25 01:52:00,
2013-12-24 21:01:00,30.0,13.0,-100.00,NE,37,1.0,5.0,48,0.00,,,0.00,0.000000,,2013-12-25 02:01:00,
2013-12-24 21:42:00,30.0,12.0,-100.00,NE,34,4.0,5.0,46,0.00,,,0.00,0.000000,,2013-12-25 02:42:00,
2013-12-24 21:53:00,30.0,12.0,-100.00,NE,34,4.0,5.0,46,0.00,,,0.00,0.000000,,2013-12-25 02:53:00,
2013-12-24 22:02:00,30.0,12.0,-100.00,NE,34,4.0,5.0,46,0.00,,,0.00,0.000000,,2013-12-25 03:02:00,
2013-12-24 22:43:00,29.0,10.0,-100.00,NE,50,1.0,6.0,45,0.00,,,0.00,0.000000,,2013-12-25 03:43:00,
2013-12-24 22:53:00,29.0,10.0,-100.00,NE,50,1.0,6.0,45,0.00,,,0.00,0.000000,,2013-12-25 03:53:00,
2013-12-24 23:03:00,29.0,10.0,-100.00,NE,50,1.0,6.0,45,0.00,,,0.00,0.000000,,2013-12-25 04:03:00,
2013-12-24 23:43:00,28.0,12.0,-100.00,NE,55,2.0,3.0,51,0.00,,,0.00,0.000000,,2013-12-25 04:43:00,
2013-12-24 23:53:00,28.0,12.0,-100.00,NE,55,2.0,3.0,51,0.00,,,0.00,0.000000,,2013-12-25 04:53:00,